Bushland, Texas
Current Conditions -  °F | °C
As of 12:53 PM on Friday 28 Nov 2014 (Local Time) from KAMA Reporting Station
Clear Clear  
Wind Chill: 78°   Ceiling: Unl
Heat Index: 78°   Visibility: 10mi
Dew Point: 16°   Wind: 17mph
Humidity: 10%   Direction: 250°WSW
Pressure: 29.95"   Gusts: 28mph
Location:  35.19°N, 102.07°W
Report Text: KAMA 281853Z 25015G24KT 10SM CLR 26/M09 A2995 RMK AO2 SLP108 T02561089
Loading
Personal Weather Stations






























Interactive Weather Map New forecast layout! Learn more

10-Day Weather Forecast

Advertisements
Track Severe Weather on mobile